Map

Track Data

SID SEASON NUMBER BASIN SUBBASIN NAME ISO_TIME NATURE LAT LON WMO_WIND WMO_PRES WMO_AGENCY TRACK_TYPE DIST2LAND LANDFALL IFLAG USA_AGENCY USA_ATCF_ID USA_LAT USA_LON USA_RECORD USA_STATUS USA_WIND USA_PRES USA_SSHS USA_R34_NE USA_R34_SE USA_R34_SW USA_R34_NW USA_R50_NE USA_R50_SE USA_R50_SW USA_R50_NW USA_R64_NE USA_R64_SE USA_R64_SW USA_R64_NW USA_POCI USA_ROCI USA_RMW USA_EYE TOKYO_LAT TOKYO_LON TOKYO_GRADE TOKYO_WIND TOKYO_PRES TOKYO_R50_DIR TOKYO_R50_LONG TOKYO_R50_SHORT TOKYO_R30_DIR TOKYO_R30_LONG TOKYO_R30_SHORT TOKYO_LAND CMA_LAT CMA_LON CMA_CAT CMA_WIND CMA_PRES HKO_LAT HKO_LON HKO_CAT HKO_WIND HKO_PRES NEWDELHI_LAT NEWDELHI_LON NEWDELHI_GRADE NEWDELHI_WIND NEWDELHI_PRES NEWDELHI_CI NEWDELHI_DP NEWDELHI_POCI REUNION_LAT REUNION_LON REUNION_TYPE REUNION_WIND REUNION_PRES REUNION_TNUM REUNION_CI REUNION_RMW REUNION_R34_NE REUNION_R34_SE REUNION_R34_SW REUNION_R34_NW REUNION_R50_NE REUNION_R50_SE REUNION_R50_SW REUNION_R50_NW REUNION_R64_NE REUNION_R64_SE REUNION_R64_SW REUNION_R64_NW BOM_LAT BOM_LON BOM_TYPE BOM_WIND BOM_PRES BOM_TNUM BOM_CI BOM_RMW BOM_R34_NE BOM_R34_SE BOM_R34_SW BOM_R34_NW BOM_R50_NE BOM_R50_SE BOM_R50_SW BOM_R50_NW BOM_R64_NE BOM_R64_SE BOM_R64_SW BOM_R64_NW BOM_ROCI BOM_POCI BOM_EYE BOM_POS_METHOD BOM_PRES_METHOD NADI_LAT NADI_LON NADI_CAT NADI_WIND NADI_PRES WELLINGTON_LAT WELLINGTON_LON WELLINGTON_WIND WELLINGTON_PRES DS824_LAT DS824_LON DS824_STAGE DS824_WIND DS824_PRES TD9636_LAT TD9636_LON TD9636_STAGE TD9636_WIND TD9636_PRES TD9635_LAT TD9635_LON TD9635_WIND TD9635_PRES TD9635_ROCI NEUMANN_LAT NEUMANN_LON NEUMANN_CLASS NEUMANN_WIND NEUMANN_PRES MLC_LAT MLC_LON MLC_CLASS MLC_WIND MLC_PRES USA_GUST BOM_GUST BOM_GUST_PER REUNION_GUST REUNION_GUST_PER USA_SEAHGT USA_SEARAD_NE USA_SEARAD_SE USA_SEARAD_SW USA_SEARAD_NW STORM_SPEED STORM_DIR
1926272N16093 1926 49 NI BB NOT_NAMED 1926-09-29 00:00:00 TS 15.7000 92.7000 main 163 163 _________O____ -1 15.7000 92.7000 TC 30 4 280
1926272N16093 1926 49 NI BB NOT_NAMED 1926-09-29 03:00:00 TS 15.7334 92.4950 main 184 184 _________PO___ -1 15.7501 92.3925 TC 30 15.7000 92.7000 1 5 280
1926272N16093 1926 49 NI BB NOT_NAMED 1926-09-29 06:00:00 TS 15.7827 92.2158 main 215 215 _________OP___ -1 15.8000 92.1000 TC 30 15.7568 92.3894 1 5 281
1926272N16093 1926 49 NI BB NOT_NAMED 1926-09-29 09:00:00 TS 15.8332 91.9455 main 247 246 _________PP___ -1 15.8500 91.8350 TC 30 15.8107 92.0929 1 5 281
1926272N16093 1926 49 NI BB NOT_NAMED 1926-09-29 12:00:00 TS 15.8796 91.7125 main 267 267 _________OP___ -1 15.9000 91.6000 TC 30 15.8593 91.8250 1 4 282
1926272N16093 1926 49 NI BB NOT_NAMED 1926-09-29 15:00:00 TS 15.9250 91.4962 main 288 288 _________PO___ -1 15.9500 91.3925 TC 30 15.9000 91.6000 1 4 283
1926272N16093 1926 49 NI BB NOT_NAMED 1926-09-29 18:00:00 TS 15.9666 91.3114 main 310 310 _________OP___ -1 16.0000 91.2000 TC 30 15.9332 91.4228 1 3 283
1926272N16093 1926 49 NI BB NOT_NAMED 1926-09-29 21:00:00 TS 16.0020 91.1521 main 320 320 _________PP___ -1 16.0348 91.0449 TC 30 15.9691 91.2594 1 4 284
1926272N16093 1926 49 NI BB NOT_NAMED 1926-09-30 00:00:00 TS 16.0603 90.9332 main 352 352 _________OP___ -1 16.1000 90.8000 TC 30 16.0205 91.0664 1 6 286
1926272N16093 1926 49 NI BB NOT_NAMED 1926-09-30 03:00:00 TS 16.1676 90.5688 main 385 385 _________PO___ -1 16.2352 90.3376 TC 30 16.1000 90.8000 1 8 288
1926272N16093 1926 49 NI BB NOT_NAMED 1926-09-30 06:00:00 TS 16.3149 90.1022 main 439 439 _________OP___ -1 16.4000 89.8000 TC 30 16.2297 90.4044 1 9 289
1926272N16093 1926 49 NI BB NOT_NAMED 1926-09-30 09:00:00 TS 16.4714 89.6415 main 494 481 _________PP___ -1 16.5573 89.3500 TC 30 16.3855 89.9330 1 10 289
1926272N16093 1926 49 NI BB NOT_NAMED 1926-09-30 12:00:00 TS 16.6242 89.1600 main 481 441 _________OP___ -1 16.7000 88.9000 TC 30 16.5484 89.4200 1 10 287
1926272N16093 1926 49 NI BB NOT_NAMED 1926-09-30 15:00:00 TS 16.7537 88.6500 main 426 405 _________PO___ -1 16.8075 88.3999 TC 30 16.7000 88.9000 1 10 284
1926272N16093 1926 49 NI BB NOT_NAMED 1926-09-30 18:00:00 TS 16.8551 88.1562 main 395 372 _________OP___ -1 16.9000 87.9000 TC 30 16.8102 88.4125 1 9 282
1926272N16093 1926 49 NI BB NOT_NAMED 1926-09-30 21:00:00 TS 16.9536 87.6810 main 362 348 _________PP___ -1 16.9999 87.4350 TC 30 16.9074 87.9271 1 9 282
1926272N16093 1926 49 NI BB NOT_NAMED 1926-10-01 00:00:00 TS 17.0504 87.2266 main 334 300 _________OP___ -1 17.1000 87.0000 TC 30 17.0008 87.4531 1 9 283
1926272N16093 1926 49 NI BB NOT_NAMED 1926-10-01 03:00:00 TS 17.1462 86.7962 main 300 253 _________PO___ -1 17.1924 86.5924 TC 30 17.1000 87.0000 1 8 285
1926272N16093 1926 49 NI BB NOT_NAMED 1926-10-01 06:00:00 TS 17.2586 86.3912 main 253 215 _________OP___ -1 17.3000 86.2000 TC 30 17.2173 86.5824 1 8 288
1926272N16093 1926 49 NI BB NOT_NAMED 1926-10-01 09:00:00 TS 17.3958 85.9962 main 215 176 _________PP___ -1 17.4499 85.8075 TC 30 17.3418 86.1848 1 8 290
1926272N16093 1926 49 NI BB NOT_NAMED 1926-10-01 12:00:00 TS 17.5352 85.5974 main 176 138 _________OP___ -1 17.6000 85.4000 TC 30 17.4704 85.7948 1 8 288
1926272N16093 1926 49 NI BB NOT_NAMED 1926-10-01 15:00:00 TS 17.6500 85.1749 main 130 99 _________PO___ -1 17.7000 84.9499 TC 30 17.6000 85.4000 1 8 285
1926272N16093 1926 49 NI BB NOT_NAMED 1926-10-01 18:00:00 TS 17.7540 84.7570 main 92 54 _________OP___ -1 17.8000 84.5000 TC 30 17.7080 85.0140 1 8 287
1926272N16093 1926 49 NI BB NOT_NAMED 1926-10-01 21:00:00 TS 17.8767 84.3731 main 54 24 _________PP___ -1 17.9346 84.1298 TC 30 17.8188 84.6163 1 8 289
1926272N16093 1926 49 NI BB NOT_NAMED 1926-10-02 00:00:00 TS 18.0226 83.9428 main 22 0 _________OP___ -1 18.1000 83.7000 TC 30 17.9453 84.1856 1 10 289
1926272N16093 1926 49 NI BB NOT_NAMED 1926-10-02 03:00:00 TS 18.1926 83.3900 main 0 0 _________PO___ -1 18.2852 83.0800 TC 30 18.1000 83.7000 1 12 288
1926272N16093 1926 49 NI BB NOT_NAMED 1926-10-02 06:00:00 TS 18.3984 82.7583 main 0 0 _________OP___ -1 18.5000 82.4000 TC 30 18.2968 83.1166 1 13 290
1926272N16093 1926 49 NI BB NOT_NAMED 1926-10-02 09:00:00 TS 18.6353 82.1327 main 0 0 _________PP___ -1 18.7498 81.7850 TC 30 18.5208 82.4805 1 13 292
1926272N16093 1926 49 NI BB NOT_NAMED 1926-10-02 12:00:00 TS 18.8796 81.5145 main 0 0 _________OP___ -1 19.0000 81.2000 TC 30 18.7593 81.8290 1 12 292
1926272N16093 1926 49 NI BB NOT_NAMED 1926-10-02 15:00:00 TS 19.0999 80.9174 main 0 0 _________PO___ -1 19.1998 80.6347 TC 30 19.0000 81.2000 1 11 292
1926272N16093 1926 49 NI BB NOT_NAMED 1926-10-02 18:00:00 TS 19.3049 80.3987 main 0 0 _________OP___ -1 19.4000 80.1000 TC 30 19.2336 80.6227 1 11 294
1926272N16093 1926 49 NI BB NOT_NAMED 1926-10-02 21:00:00 TS 19.5311 79.8915 main 0 0 _________PP___ -1 19.6378 79.5929 TC 30 19.4601 80.0905 1 10 296
1926272N16093 1926 49 NI BB NOT_NAMED 1926-10-03 00:00:00 TS 19.7544 79.4254 main 0 0 _________OP___ -1 19.9000 79.1000 TC 30 19.6816 79.5882 1 8 296
1926272N16093 1926 49 NI BB NOT_NAMED 1926-10-03 03:00:00 NR 19.9000 79.1000 main 0 __________O___ -1 TC 19.9000 79.1000 1 7 295

About IBTrACS Database

This database is a web-friendly format of International Best Track Archive for Climate Stewardship (IBTrACS), a global best track data archive curated by NOAA dating back to 1842.

Updated: 2021-12-03